sensor_id;sensor_type;location;lat;lon;timestamp;pressure;altitude;pressure_sealevel;temperature;humidity
23574;BME280;11965;53.640;10.050;2023-07-09T00:02:15;101836.94;;;18.34;73.05
23574;BME280;11965;53.640;10.050;2023-07-09T00:04:43;101828.13;;;18.24;72.26
23574;BME280;11965;53.640;10.050;2023-07-09T00:07:17;101832.69;;;18.25;69.94
23574;BME280;11965;53.640;10.050;2023-07-09T00:09:45;101833.72;;;18.30;72.03
23574;BME280;11965;53.640;10.050;2023-07-09T00:12:15;101825.72;;;18.41;69.07
23574;BME280;11965;53.640;10.050;2023-07-09T00:14:43;101833.47;;;18.39;67.94
23574;BME280;11965;53.640;10.050;2023-07-09T00:17:12;101836.03;;;18.40;68.23
23574;BME280;11965;53.640;10.050;2023-07-09T00:19:39;101833.94;;;18.36;68.33
23574;BME280;11965;53.640;10.050;2023-07-09T00:22:14;101833.69;;;18.37;68.89
23574;BME280;11965;53.640;10.050;2023-07-09T00:24:43;101844.91;;;18.37;68.09
23574;BME280;11965;53.640;10.050;2023-07-09T00:27:11;101847.31;;;18.33;67.90
23574;BME280;11965;53.640;10.050;2023-07-09T00:29:40;101840.84;;;18.26;69.85
23574;BME280;11965;53.640;10.050;2023-07-09T00:32:18;101836.53;;;18.30;66.75
23574;BME280;11965;53.640;10.050;2023-07-09T00:34:46;101844.50;;;18.33;67.80
23574;BME280;11965;53.640;10.050;2023-07-09T00:37:16;101839.34;;;18.30;67.47
23574;BME280;11965;53.640;10.050;2023-07-09T00:39:45;101834.19;;;18.21;68.63
23574;BME280;11965;53.640;10.050;2023-07-09T00:42:14;101846.72;;;18.18;67.15
23574;BME280;11965;53.640;10.050;2023-07-09T00:44:46;101855.78;;;18.27;67.37
23574;BME280;11965;53.640;10.050;2023-07-09T00:47:21;101846.72;;;18.25;68.97
23574;BME280;11965;53.640;10.050;2023-07-09T00:50:10;101838.53;;;18.17;67.71
23574;BME280;11965;53.640;10.050;2023-07-09T00:52:45;101836.13;;;18.20;68.00
23574;BME280;11965;53.640;10.050;2023-07-09T00:55:23;101841.34;;;18.17;67.70
23574;BME280;11965;53.640;10.050;2023-07-09T00:57:55;101837.69;;;18.16;68.07
23574;BME280;11965;53.640;10.050;2023-07-09T01:00:31;101834.69;;;18.11;67.53
23574;BME280;11965;53.640;10.050;2023-07-09T01:03:10;101829.91;;;18.05;69.28
23574;BME280;11965;53.640;10.050;2023-07-09T01:05:38;101833.41;;;18.00;66.99
23574;BME280;11965;53.640;10.050;2023-07-09T01:08:07;101840.72;;;18.01;68.40
23574;BME280;11965;53.640;10.050;2023-07-09T01:10:35;101827.13;;;18.05;67.38
23574;BME280;11965;53.640;10.050;2023-07-09T01:13:02;101845.03;;;18.04;65.71
23574;BME280;11965;53.640;10.050;2023-07-09T01:15:30;101830.38;;;18.02;66.62
23574;BME280;11965;53.640;10.050;2023-07-09T01:18:01;101823.94;;;17.95;66.76
23574;BME280;11965;53.640;10.050;2023-07-09T01:20:28;101828.22;;;17.97;66.04
23574;BME280;11965;53.640;10.050;2023-07-09T01:22:56;101831.25;;;17.89;67.52
23574;BME280;11965;53.640;10.050;2023-07-09T01:25:27;101836.00;;;17.88;64.91
23574;BME280;11965;53.640;10.050;2023-07-09T01:27:55;101833.88;;;17.84;65.86
23574;BME280;11965;53.640;10.050;2023-07-09T01:30:36;101828.69;;;17.81;65.79
23574;BME280;11965;53.640;10.050;2023-07-09T01:33:04;101823.50;;;17.78;65.76
23574;BME280;11965;53.640;10.050;2023-07-09T01:35:38;101826.97;;;17.73;68.29
23574;BME280;11965;53.640;10.050;2023-07-09T01:38:09;101824.81;;;17.69;66.17
23574;BME280;11965;53.640;10.050;2023-07-09T01:40:36;101828.91;;;17.59;66.78
23574;BME280;11965;53.640;10.050;2023-07-09T01:43:04;101839.06;;;17.54;67.78
23574;BME280;11965;53.640;10.050;2023-07-09T01:45:34;101825.06;;;17.47;68.95
23574;BME280;11965;53.640;10.050;2023-07-09T01:48:01;101833.91;;;17.44;68.51
23574;BME280;11965;53.640;10.050;2023-07-09T01:50:28;101829.13;;;17.38;67.46
23574;BME280;11965;53.640;10.050;2023-07-09T01:52:56;101824.41;;;17.45;66.35
23574;BME280;11965;53.640;10.050;2023-07-09T01:55:40;101813.41;;;17.37;67.00
23574;BME280;11965;53.640;10.050;2023-07-09T01:58:07;101824.84;;;17.42;66.46
23574;BME280;11965;53.640;10.050;2023-07-09T02:00:34;101830.88;;;17.39;67.81
23574;BME280;11965;53.640;10.050;2023-07-09T02:03:03;101825.72;;;17.36;66.82
23574;BME280;11965;53.640;10.050;2023-07-09T02:05:31;101822.25;;;17.34;67.18
23574;BME280;11965;53.640;10.050;2023-07-09T02:07:59;101824.19;;;17.40;66.46
23574;BME280;11965;53.640;10.050;2023-07-09T02:10:26;101813.41;;;17.37;65.96
23574;BME280;11965;53.640;10.050;2023-07-09T02:12:55;101824.84;;;17.42;65.91
23574;BME280;11965;53.640;10.050;2023-07-09T02:15:22;101825.69;;;17.42;67.37
23574;BME280;11965;53.640;10.050;2023-07-09T02:17:49;101831.72;;;17.33;66.03
23574;BME280;11965;53.640;10.050;2023-07-09T02:20:18;101827.22;;;17.25;66.23
23574;BME280;11965;53.640;10.050;2023-07-09T02:22:45;101827.63;;;17.22;66.70
23574;BME280;11965;53.640;10.050;2023-07-09T02:25:12;101823.97;;;17.21;65.90
23574;BME280;11965;53.640;10.050;2023-07-09T02:27:39;101827.88;;;17.34;66.29
23574;BME280;11965;53.640;10.050;2023-07-09T02:30:08;101818.81;;;17.32;65.75
23574;BME280;11965;53.640;10.050;2023-07-09T02:32:36;101825.06;;;17.34;64.39
23574;BME280;11965;53.640;10.050;2023-07-09T02:35:04;101807.63;;;17.25;67.07
23574;BME280;11965;53.640;10.050;2023-07-09T02:37:31;101819.66;;;17.19;65.56
23574;BME280;11965;53.640;10.050;2023-07-09T02:39:59;101820.34;;;17.28;65.67
23574;BME280;11965;53.640;10.050;2023-07-09T02:42:25;101822.91;;;17.22;66.43
23574;BME280;11965;53.640;10.050;2023-07-09T02:44:52;101821.81;;;17.10;67.16
23574;BME280;11965;53.640;10.050;2023-07-09T02:47:24;101829.13;;;17.05;67.50
23574;BME280;11965;53.640;10.050;2023-07-09T02:49:52;101820.50;;;16.99;66.06
23574;BME280;11965;53.640;10.050;2023-07-09T02:52:19;101836.22;;;16.94;69.21
23574;BME280;11965;53.640;10.050;2023-07-09T02:54:46;101825.25;;;16.86;69.08
23574;BME280;11965;53.640;10.050;2023-07-09T02:57:13;101829.75;;;16.87;69.06
23574;BME280;11965;53.640;10.050;2023-07-09T02:59:40;101825.66;;;16.89;67.79
23574;BME280;11965;53.640;10.050;2023-07-09T03:02:07;101826.94;;;16.87;69.19
23574;BME280;11965;53.640;10.050;2023-07-09T03:04:35;101822.41;;;16.79;69.96
23574;BME280;11965;53.640;10.050;2023-07-09T03:07:03;101835.13;;;16.82;70.63
23574;BME280;11965;53.640;10.050;2023-07-09T03:09:30;101823.22;;;16.73;71.34
23574;BME280;11965;53.640;10.050;2023-07-09T03:11:56;101821.28;;;16.67;71.61
23574;BME280;11965;53.640;10.050;2023-07-09T03:14:23;101827.75;;;16.67;71.61
23574;BME280;11965;53.640;10.050;2023-07-09T03:16:50;101820.66;;;16.71;71.13
23574;BME280;11965;53.640;10.050;2023-07-09T03:19:17;101826.66;;;16.68;71.76
23574;BME280;11965;53.640;10.050;2023-07-09T03:21:46;101830.97;;;16.64;73.67
23574;BME280;11965;53.640;10.050;2023-07-09T03:24:13;101834.84;;;16.63;74.54
23574;BME280;11965;53.640;10.050;2023-07-09T03:26:40;101841.50;;;16.62;72.69
23574;BME280;11965;53.640;10.050;2023-07-09T03:29:07;101836.53;;;16.57;73.89
23574;BME280;11965;53.640;10.050;2023-07-09T03:31:34;101833.31;;;16.54;72.49
23574;BME280;11965;53.640;10.050;2023-07-09T03:34:01;101837.63;;;16.56;74.19
23574;BME280;11965;53.640;10.050;2023-07-09T03:36:28;101833.09;;;16.62;73.43
23574;BME280;11965;53.640;10.050;2023-07-09T03:38:57;101829.69;;;16.67;73.41
23574;BME280;11965;53.640;10.050;2023-07-09T03:41:24;101840.69;;;16.75;73.00
23574;BME280;11965;53.640;10.050;2023-07-09T03:43:51;101841.78;;;16.74;74.91
23574;BME280;11965;53.640;10.050;2023-07-09T03:46:18;101842.16;;;16.71;75.59
23574;BME280;11965;53.640;10.050;2023-07-09T03:48:45;101845.63;;;16.73;75.05
23574;BME280;11965;53.640;10.050;2023-07-09T03:51:12;101838.75;;;16.75;75.65
23574;BME280;11965;53.640;10.050;2023-07-09T03:53:39;101846.09;;;16.76;73.63
23574;BME280;11965;53.640;10.050;2023-07-09T03:56:07;101850.22;;;16.81;75.33
23574;BME280;11965;53.640;10.050;2023-07-09T03:58:34;101854.31;;;16.91;74.29
23574;BME280;11965;53.640;10.050;2023-07-09T04:01:01;101840.75;;;16.88;75.37
23574;BME280;11965;53.640;10.050;2023-07-09T04:03:28;101848.09;;;16.96;72.67
23574;BME280;11965;53.640;10.050;2023-07-09T04:05:55;101849.84;;;17.04;71.21
23574;BME280;11965;53.640;10.050;2023-07-09T04:08:22;101846.59;;;17.07;69.99
23574;BME280;11965;53.640;10.050;2023-07-09T04:10:52;101842.09;;;17.12;66.95
23574;BME280;11965;53.640;10.050;2023-07-09T04:13:21;101847.25;;;17.22;67.31
23574;BME280;11965;53.640;10.050;2023-07-09T04:15:48;101849.88;;;17.30;69.43
23574;BME280;11965;53.640;10.050;2023-07-09T04:18:15;101841.88;;;17.34;66.26
23574;BME280;11965;53.640;10.050;2023-07-09T04:20:42;101844.88;;;17.45;67.07
23574;BME280;11965;53.640;10.050;2023-07-09T04:23:11;101837.13;;;17.48;67.47
23574;BME280;11965;53.640;10.050;2023-07-09T04:25:39;101847.47;;;17.47;68.08
23574;BME280;11965;53.640;10.050;2023-07-09T04:28:05;101839.28;;;17.52;66.96
23574;BME280;11965;53.640;10.050;2023-07-09T04:30:34;101848.97;;;17.43;62.79
23574;BME280;11965;53.640;10.050;2023-07-09T04:33:00;101841.63;;;17.49;62.08
23574;BME280;11965;53.640;10.050;2023-07-09T04:35:27;101837.53;;;17.51;64.14
23574;BME280;11965;53.640;10.050;2023-07-09T04:37:58;101843.16;;;17.51;64.91
23574;BME280;11965;53.640;10.050;2023-07-09T04:40:25;101833.44;;;17.54;62.53
23574;BME280;11965;53.640;10.050;2023-07-09T04:42:52;101842.06;;;17.59;64.44
23574;BME280;11965;53.640;10.050;2023-07-09T04:45:19;101845.09;;;17.64;64.73
23574;BME280;11965;53.640;10.050;2023-07-09T04:47:47;101840.78;;;17.61;64.59
23574;BME280;11965;53.640;10.050;2023-07-09T04:50:14;101847.69;;;17.65;64.96
23574;BME280;11965;53.640;10.050;2023-07-09T04:52:41;101845.94;;;17.64;63.88
23574;BME280;11965;53.640;10.050;2023-07-09T04:55:08;101853.50;;;17.71;61.25
23574;BME280;11965;53.640;10.050;2023-07-09T04:57:35;101851.78;;;17.76;62.57
23574;BME280;11965;53.640;10.050;2023-07-09T05:00:03;101841.66;;;17.82;63.95
23574;BME280;11965;53.640;10.050;2023-07-09T05:02:31;101848.91;;;18.09;64.97
23574;BME280;11965;53.640;10.050;2023-07-09T05:04:59;101849.53;;;18.18;62.41
23574;BME280;11965;53.640;10.050;2023-07-09T05:07:26;101844.50;;;18.33;60.06
23574;BME280;11965;53.640;10.050;2023-07-09T05:09:53;101841.66;;;18.47;59.96
23574;BME280;11965;53.640;10.050;2023-07-09T05:12:20;101845.72;;;18.51;61.23
23574;BME280;11965;53.640;10.050;2023-07-09T05:14:47;101840.47;;;18.61;61.58
23574;BME280;11965;53.640;10.050;2023-07-09T05:17:14;101846.50;;;18.78;58.21
23574;BME280;11965;53.640;10.050;2023-07-09T05:19:41;101837.63;;;18.81;59.14
23574;BME280;11965;53.640;10.050;2023-07-09T05:22:09;101842.50;;;18.92;62.88
23574;BME280;11965;53.640;10.050;2023-07-09T05:24:36;101838.09;;;19.03;55.85
23574;BME280;11965;53.640;10.050;2023-07-09T05:27:03;101841.47;;;19.18;59.33
23574;BME280;11965;53.640;10.050;2023-07-09T05:29:30;101846.16;;;19.25;60.03
23574;BME280;11965;53.640;10.050;2023-07-09T05:31:57;101852.81;;;19.30;59.01
23574;BME280;11965;53.640;10.050;2023-07-09T05:34:24;101859.44;;;19.42;58.46
23574;BME280;11965;53.640;10.050;2023-07-09T05:36:51;101857.13;;;19.58;60.85
23574;BME280;11965;53.640;10.050;2023-07-09T05:39:19;101854.72;;;19.61;59.58
23574;BME280;11965;53.640;10.050;2023-07-09T05:41:46;101858.31;;;19.75;56.79
23574;BME280;11965;53.640;10.050;2023-07-09T05:44:13;101857.19;;;19.76;61.19
23574;BME280;11965;53.640;10.050;2023-07-09T05:46:39;101856.03;;;19.84;58.23
23574;BME280;11965;53.640;10.050;2023-07-09T05:49:06;101844.97;;;19.89;59.80
23574;BME280;11965;53.640;10.050;2023-07-09T05:51:33;101845.97;;;19.95;56.93
23574;BME280;11965;53.640;10.050;2023-07-09T05:54:00;101844.72;;;20.09;58.40
23574;BME280;11965;53.640;10.050;2023-07-09T05:56:29;101839.25;;;20.14;58.47
23574;BME280;11965;53.640;10.050;2023-07-09T05:58:56;101833.88;;;20.31;56.40
23574;BME280;11965;53.640;10.050;2023-07-09T06:01:23;101838.22;;;20.45;57.11
23574;BME280;11965;53.640;10.050;2023-07-09T06:03:50;101841.53;;;20.61;54.08
23574;BME280;11965;53.640;10.050;2023-07-09T06:06:17;101839.75;;;20.78;55.11
23574;BME280;11965;53.640;10.050;2023-07-09T06:08:44;101827.81;;;20.94;55.16
23574;BME280;11965;53.640;10.050;2023-07-09T06:11:12;101842.16;;;20.93;53.03
23574;BME280;11965;53.640;10.050;2023-07-09T06:13:41;101838.09;;;21.01;56.69
23574;BME280;11965;53.640;10.050;2023-07-09T06:16:07;101838.78;;;21.14;53.72
23574;BME280;11965;53.640;10.050;2023-07-09T06:18:35;101841.50;;;21.33;55.53
23574;BME280;11965;53.640;10.050;2023-07-09T06:21:03;101841.56;;;21.56;54.90
23574;BME280;11965;53.640;10.050;2023-07-09T06:23:30;101844.16;;;21.58;54.82
23574;BME280;11965;53.640;10.050;2023-07-09T06:25:57;101845.38;;;21.62;53.35
23574;BME280;11965;53.640;10.050;2023-07-09T06:28:26;101836.31;;;21.95;53.35
23574;BME280;11965;53.640;10.050;2023-07-09T06:30:55;101831.63;;;22.01;53.83
23574;BME280;11965;53.640;10.050;2023-07-09T06:33:24;101829.53;;;21.96;54.81
23574;BME280;11965;53.640;10.050;2023-07-09T06:35:54;101833.81;;;22.11;52.11
23574;BME280;11965;53.640;10.050;2023-07-09T06:38:21;101840.97;;;22.25;53.64
23574;BME280;11965;53.640;10.050;2023-07-09T06:40:49;101833.28;;;22.49;52.69
23574;BME280;11965;53.640;10.050;2023-07-09T06:43:16;101830.69;;;22.47;52.30
23574;BME280;11965;53.640;10.050;2023-07-09T06:45:56;101832.28;;;22.55;50.53
23574;BME280;11965;53.640;10.050;2023-07-09T06:48:26;101838.28;;;22.59;53.09
23574;BME280;11965;53.640;10.050;2023-07-09T06:50:58;101841.31;;;22.69;50.34
23574;BME280;11965;53.640;10.050;2023-07-09T06:53:27;101842.59;;;22.78;51.67
23574;BME280;11965;53.640;10.050;2023-07-09T06:55:54;101847.09;;;22.91;51.28
23574;BME280;11965;53.640;10.050;2023-07-09T06:58:26;101838.63;;;23.03;50.58
23574;BME280;11965;53.640;10.050;2023-07-09T07:00:54;101842.31;;;23.20;51.08
23574;BME280;11965;53.640;10.050;2023-07-09T07:03:23;101847.81;;;23.27;49.09
23574;BME280;11965;53.640;10.050;2023-07-09T07:05:52;101843.16;;;23.21;50.25
23574;BME280;11965;53.640;10.050;2023-07-09T07:08:22;101849.63;;;23.33;49.64
23574;BME280;11965;53.640;10.050;2023-07-09T07:10:49;101843.09;;;23.49;51.71
23574;BME280;11965;53.640;10.050;2023-07-09T07:13:16;101839.50;;;23.54;51.36
23574;BME280;11965;53.640;10.050;2023-07-09T07:15:48;101839.31;;;23.60;52.32
23574;BME280;11965;53.640;10.050;2023-07-09T07:18:15;101843.88;;;23.62;48.99
23574;BME280;11965;53.640;10.050;2023-07-09T07:20:44;101842.59;;;23.86;49.33
23574;BME280;11965;53.640;10.050;2023-07-09T07:23:10;101837.03;;;23.91;50.34
23574;BME280;11965;53.640;10.050;2023-07-09T07:25:37;101831.16;;;23.98;48.88
23574;BME280;11965;53.640;10.050;2023-07-09T07:28:04;101831.41;;;23.96;48.05
23574;BME280;11965;53.640;10.050;2023-07-09T07:30:31;101835.84;;;24.09;49.66
23574;BME280;11965;53.640;10.050;2023-07-09T07:32:58;101834.16;;;24.30;49.21
23574;BME280;11965;53.640;10.050;2023-07-09T07:35:25;101832.84;;;24.38;48.73
23574;BME280;11965;53.640;10.050;2023-07-09T07:37:53;101837.59;;;24.32;50.08
23574;BME280;11965;53.640;10.050;2023-07-09T07:40:20;101836.38;;;24.28;49.17
23574;BME280;11965;53.640;10.050;2023-07-09T07:42:47;101840.81;;;24.41;46.79
23574;BME280;11965;53.640;10.050;2023-07-09T07:45:15;101842.69;;;24.52;46.60
23574;BME280;11965;53.640;10.050;2023-07-09T07:47:42;101834.97;;;24.69;48.08
23574;BME280;11965;53.640;10.050;2023-07-09T07:50:09;101831.59;;;24.73;49.39
23574;BME280;11965;53.640;10.050;2023-07-09T07:52:36;101836.25;;;24.84;47.97
23574;BME280;11965;53.640;10.050;2023-07-09T07:55:06;101838.50;;;24.82;45.82
23574;BME280;11965;53.640;10.050;2023-07-09T07:57:34;101839.53;;;24.98;45.96
23574;BME280;11965;53.640;10.050;2023-07-09T08:00:02;101832.13;;;25.19;45.56
23574;BME280;11965;53.640;10.050;2023-07-09T08:02:38;101825.63;;;25.23;45.95
23574;BME280;11965;53.640;10.050;2023-07-09T08:05:05;101816.69;;;25.09;43.77
23574;BME280;11965;53.640;10.050;2023-07-09T08:07:32;101826.13;;;25.15;45.67
23574;BME280;11965;53.640;10.050;2023-07-09T08:09:59;101824.81;;;25.28;49.98
23574;BME280;11965;53.640;10.050;2023-07-09T08:12:28;101832.75;;;25.26;46.83
23574;BME280;11965;53.640;10.050;2023-07-09T08:14:54;101824.44;;;25.19;44.42
23574;BME280;11965;53.640;10.050;2023-07-09T08:17:21;101830.28;;;25.34;49.52
23574;BME280;11965;53.640;10.050;2023-07-09T08:19:50;101827.28;;;25.51;46.44
23574;BME280;11965;53.640;10.050;2023-07-09T08:22:17;101830.03;;;25.78;48.16
23574;BME280;11965;53.640;10.050;2023-07-09T08:24:46;101822.88;;;25.66;44.86
23574;BME280;11965;53.640;10.050;2023-07-09T08:27:13;101824.88;;;26.08;44.74
23574;BME280;11965;53.640;10.050;2023-07-09T08:29:42;101820.16;;;26.29;48.04
23574;BME280;11965;53.640;10.050;2023-07-09T08:32:09;101821.50;;;26.16;49.44
23574;BME280;11965;53.640;10.050;2023-07-09T08:34:37;101820.41;;;26.27;44.87
23574;BME280;11965;53.640;10.050;2023-07-09T08:37:05;101817.31;;;26.29;42.82
23574;BME280;11965;53.640;10.050;2023-07-09T08:39:32;101819.59;;;26.32;48.93
23574;BME280;11965;53.640;10.050;2023-07-09T08:42:03;101817.31;;;26.29;44.15
23574;BME280;11965;53.640;10.050;2023-07-09T08:44:51;101816.50;;;26.43;45.13
23574;BME280;11965;53.640;10.050;2023-07-09T08:47:31;101811.66;;;26.39;44.91
23574;BME280;11965;53.640;10.050;2023-07-09T08:50:04;101807.72;;;26.50;43.77
23574;BME280;11965;53.640;10.050;2023-07-09T08:52:38;101802.41;;;26.69;44.71
23574;BME280;11965;53.640;10.050;2023-07-09T08:55:09;101811.00;;;26.84;45.14
23574;BME280;11965;53.640;10.050;2023-07-09T08:57:40;101811.00;;;27.00;45.46
23574;BME280;11965;53.640;10.050;2023-07-09T09:00:14;101810.44;;;26.93;42.56
23574;BME280;11965;53.640;10.050;2023-07-09T09:02:49;101804.50;;;27.15;46.10
23574;BME280;11965;53.640;10.050;2023-07-09T09:05:19;101813.63;;;27.32;41.83
23574;BME280;11965;53.640;10.050;2023-07-09T09:07:52;101801.41;;;27.62;43.25
23574;BME280;11965;53.640;10.050;2023-07-09T09:10:29;101795.66;;;27.83;42.97
23574;BME280;11965;53.640;10.050;2023-07-09T09:13:07;101798.81;;;27.81;44.10
23574;BME280;11965;53.640;10.050;2023-07-09T09:15:39;101795.97;;;27.81;41.83
23574;BME280;11965;53.640;10.050;2023-07-09T09:18:19;101792.53;;;27.69;43.57
23574;BME280;11965;53.640;10.050;2023-07-09T09:20:54;101795.09;;;27.81;43.80
23574;BME280;11965;53.640;10.050;2023-07-09T09:23:26;101797.63;;;28.03;42.28
23574;BME280;11965;53.640;10.050;2023-07-09T09:26:11;101794.66;;;28.33;41.35
23574;BME280;11965;53.640;10.050;2023-07-09T09:28:41;101789.91;;;28.73;41.91
23574;BME280;11965;53.640;10.050;2023-07-09T09:31:11;101790.38;;;28.91;42.56
23574;BME280;11965;53.640;10.050;2023-07-09T09:33:41;101796.34;;;28.94;39.56
23574;BME280;11965;53.640;10.050;2023-07-09T09:36:15;101800.66;;;28.92;43.41
23574;BME280;11965;53.640;10.050;2023-07-09T09:38:43;101788.69;;;28.84;41.32
23574;BME280;11965;53.640;10.050;2023-07-09T09:41:15;101785.66;;;28.71;42.24
23574;BME280;11965;53.640;10.050;2023-07-09T09:43:44;101780.75;;;28.81;40.46
23574;BME280;11965;53.640;10.050;2023-07-09T09:46:19;101787.25;;;28.87;43.03
23574;BME280;11965;53.640;10.050;2023-07-09T09:48:48;101791.91;;;28.78;43.12
23574;BME280;11965;53.640;10.050;2023-07-09T09:51:17;101781.38;;;29.18;40.42
23574;BME280;11965;53.640;10.050;2023-07-09T09:53:48;101782.91;;;29.39;42.44
23574;BME280;11965;53.640;10.050;2023-07-09T09:56:18;101774.41;;;29.29;39.64
23574;BME280;11965;53.640;10.050;2023-07-09T09:58:46;101777.13;;;29.15;41.85
23574;BME280;11965;53.640;10.050;2023-07-09T10:01:19;101772.81;;;29.18;40.43
23574;BME280;11965;53.640;10.050;2023-07-09T10:03:51;101779.38;;;29.18;39.68
23574;BME280;11965;53.640;10.050;2023-07-09T10:06:21;101783.38;;;29.12;41.12
23574;BME280;11965;53.640;10.050;2023-07-09T10:08:57;101774.78;;;29.17;42.13
23574;BME280;11965;53.640;10.050;2023-07-09T10:11:38;101774.22;;;29.49;40.28
23574;BME280;11965;53.640;10.050;2023-07-09T10:14:30;101778.53;;;29.47;41.94
23574;BME280;11965;53.640;10.050;2023-07-09T10:17:08;101780.66;;;29.65;41.74
23574;BME280;11965;53.640;10.050;2023-07-09T10:19:48;101777.69;;;29.76;39.10
23574;BME280;11965;53.640;10.050;2023-07-09T10:22:47;101777.38;;;29.82;44.10
23574;BME280;11965;53.640;10.050;2023-07-09T10:25:29;101777.09;;;29.79;41.02
23574;BME280;11965;53.640;10.050;2023-07-09T10:28:26;101775.63;;;29.81;39.99
23574;BME280;11965;53.640;10.050;2023-07-09T10:31:08;101779.19;;;29.97;39.07
23574;BME280;11965;53.640;10.050;2023-07-09T10:33:53;101776.31;;;30.21;39.91
23574;BME280;11965;53.640;10.050;2023-07-09T10:36:34;101767.56;;;30.12;40.25
23574;BME280;11965;53.640;10.050;2023-07-09T10:39:08;101776.91;;;30.23;41.43
23574;BME280;11965;53.640;10.050;2023-07-09T10:41:40;101780.22;;;30.30;43.41
23574;BME280;11965;53.640;10.050;2023-07-09T10:44:24;101774.50;;;30.30;39.45
23574;BME280;11965;53.640;10.050;2023-07-09T10:47:06;101774.94;;;30.62;37.75
23574;BME280;11965;53.640;10.050;2023-07-09T10:49:40;101769.75;;;30.45;36.67
23574;BME280;11965;53.640;10.050;2023-07-09T10:52:17;101768.75;;;30.54;39.97
23574;BME280;11965;53.640;10.050;2023-07-09T10:54:59;101765.88;;;30.73;36.34
23574;BME280;11965;53.640;10.050;2023-07-09T10:57:33;101761.34;;;30.72;37.06
23574;BME280;11965;53.640;10.050;2023-07-09T11:00:23;101754.94;;;30.80;37.37
23574;BME280;11965;53.640;10.050;2023-07-09T11:02:59;101761.88;;;30.55;37.75
23574;BME280;11965;53.640;10.050;2023-07-09T11:05:28;101743.09;;;30.68;39.57
23574;BME280;11965;53.640;10.050;2023-07-09T11:08:02;101751.59;;;30.73;39.00
23574;BME280;11965;53.640;10.050;2023-07-09T11:10:34;101753.78;;;30.81;37.96
23574;BME280;11965;53.640;10.050;2023-07-09T11:13:07;101756.41;;;30.97;38.26
23574;BME280;11965;53.640;10.050;2023-07-09T11:15:41;101749.22;;;30.99;38.85
23574;BME280;11965;53.640;10.050;2023-07-09T11:18:16;101743.44;;;31.18;35.42
23574;BME280;11965;53.640;10.050;2023-07-09T11:20:58;101751.75;;;31.53;36.95
23574;BME280;11965;53.640;10.050;2023-07-09T11:23:37;101754.81;;;31.56;36.36
23574;BME280;11965;53.640;10.050;2023-07-09T11:26:11;101748.53;;;31.21;33.60
23574;BME280;11965;53.640;10.050;2023-07-09T11:28:48;101747.25;;;31.14;35.50
23574;BME280;11965;53.640;10.050;2023-07-09T11:31:21;101736.78;;;31.23;36.50
23574;BME280;11965;53.640;10.050;2023-07-09T11:33:59;101732.44;;;31.25;35.98
23574;BME280;11965;53.640;10.050;2023-07-09T11:36:30;101727.38;;;31.36;35.61
23574;BME280;11965;53.640;10.050;2023-07-09T11:38:57;101724.69;;;31.26;33.97
23574;BME280;11965;53.640;10.050;2023-07-09T11:41:28;101724.91;;;31.30;36.08
23574;BME280;11965;53.640;10.050;2023-07-09T11:44:14;101723.84;;;31.58;36.71
23574;BME280;11965;53.640;10.050;2023-07-09T11:47:00;101716.19;;;31.54;34.39
23574;BME280;11965;53.640;10.050;2023-07-09T11:49:45;101719.28;;;31.57;32.90
23574;BME280;11965;53.640;10.050;2023-07-09T11:52:21;101716.09;;;31.59;32.46
23574;BME280;11965;53.640;10.050;2023-07-09T11:54:52;101723.75;;;31.63;33.18
23574;BME280;11965;53.640;10.050;2023-07-09T11:57:30;101714.88;;;31.93;33.98
23574;BME280;11965;53.640;10.050;2023-07-09T11:59:59;101720.88;;;31.91;31.22
23574;BME280;11965;53.640;10.050;2023-07-09T12:02:38;101716.53;;;32.35;32.98
23574;BME280;11965;53.640;10.050;2023-07-09T12:05:08;101705.94;;;32.22;30.31
23574;BME280;11965;53.640;10.050;2023-07-09T12:07:41;101709.00;;;32.25;30.98
23574;BME280;11965;53.640;10.050;2023-07-09T12:10:19;101710.56;;;32.31;29.95
23574;BME280;11965;53.640;10.050;2023-07-09T12:12:48;101711.53;;;32.54;30.21
23574;BME280;11965;53.640;10.050;2023-07-09T12:15:25;101710.25;;;32.47;33.29
23574;BME280;11965;53.640;10.050;2023-07-09T12:17:54;101708.78;;;32.49;33.25
23574;BME280;11965;53.640;10.050;2023-07-09T12:20:22;101700.94;;;32.27;30.73
23574;BME280;11965;53.640;10.050;2023-07-09T12:22:50;101703.41;;;31.93;30.16
23574;BME280;11965;53.640;10.050;2023-07-09T12:25:24;101697.69;;;31.93;32.71
23574;BME280;11965;53.640;10.050;2023-07-09T12:27:52;101686.38;;;31.82;34.94
23574;BME280;11965;53.640;10.050;2023-07-09T12:30:19;101687.25;;;32.24;32.74
23574;BME280;11965;53.640;10.050;2023-07-09T12:32:50;101685.59;;;32.46;32.74
23574;BME280;11965;53.640;10.050;2023-07-09T12:35:19;101688.44;;;31.96;31.67
23574;BME280;11965;53.640;10.050;2023-07-09T12:37:50;101685.03;;;31.94;31.23
23574;BME280;11965;53.640;10.050;2023-07-09T12:40:22;101683.28;;;31.51;31.75
23574;BME280;11965;53.640;10.050;2023-07-09T12:42:49;101680.78;;;31.17;29.99
23574;BME280;11965;53.640;10.050;2023-07-09T12:45:19;101682.28;;;31.28;33.87
23574;BME280;11965;53.640;10.050;2023-07-09T12:47:49;101678.28;;;31.57;33.33
23574;BME280;11965;53.640;10.050;2023-07-09T12:50:21;101678.63;;;31.55;30.43
23574;BME280;11965;53.640;10.050;2023-07-09T12:53:01;101671.78;;;31.98;32.26
23574;BME280;11965;53.640;10.050;2023-07-09T12:55:37;101667.13;;;32.38;30.86
23574;BME280;11965;53.640;10.050;2023-07-09T12:58:10;101668.28;;;32.73;30.44